createdAt,value
2023-04-15T00:01:59.967Z,8.05
2023-04-15T00:07:02.875Z,7.80
2023-04-15T00:12:05.238Z,5.96
2023-04-15T00:17:07.416Z,5.61
2023-04-15T00:22:09.246Z,5.49
2023-04-15T00:27:11.387Z,5.29
2023-04-15T00:32:12.888Z,5.17
2023-04-15T00:37:14.281Z,5.05
2023-04-15T00:42:15.685Z,4.94
2023-04-15T00:47:18.882Z,4.84
2023-04-15T00:52:20.288Z,4.71
2023-04-15T00:57:22.798Z,4.66
2023-04-15T01:02:24.868Z,4.56
2023-04-15T01:07:26.366Z,4.55
2023-04-15T01:12:28.042Z,4.47
2023-04-15T01:17:30.098Z,4.46
2023-04-15T01:22:34.423Z,4.55
2023-04-15T01:27:38.046Z,4.49
2023-04-15T01:32:39.616Z,4.41
2023-04-15T01:37:41.058Z,4.36
2023-04-15T01:42:42.729Z,4.45
2023-04-15T01:47:45.339Z,4.48
2023-04-15T01:52:47.642Z,4.43
2023-04-15T01:57:49.110Z,4.40
2023-04-15T02:02:50.785Z,4.55
2023-04-15T02:07:52.305Z,4.44
2023-04-15T02:12:54.288Z,4.35
2023-04-15T02:17:55.791Z,4.11
2023-04-15T02:22:57.301Z,4.03
2023-04-15T02:27:58.925Z,3.91
2023-04-15T02:33:01.146Z,3.81
2023-04-15T02:38:03.184Z,3.83
2023-04-15T02:43:06.686Z,3.93
2023-04-15T02:48:08.073Z,4.13
2023-04-15T02:53:09.544Z,4.20
2023-04-15T02:58:11.032Z,4.37
2023-04-15T03:03:15.200Z,4.44
2023-04-15T03:08:17.168Z,4.28
2023-04-15T03:13:18.969Z,4.22
2023-04-15T03:18:20.472Z,4.22
2023-04-15T03:23:21.918Z,4.21
2023-04-15T03:28:23.549Z,4.21
2023-04-15T03:33:25.017Z,4.27
2023-04-15T03:38:27.048Z,4.31
2023-04-15T03:43:28.495Z,4.20
2023-04-15T03:48:29.961Z,4.23
2023-04-15T03:53:31.476Z,4.07
2023-04-15T03:58:32.944Z,4.05
2023-04-15T04:03:34.498Z,4.02
2023-04-15T04:08:36.152Z,4.01
2023-04-15T04:13:37.686Z,4.05
2023-04-15T04:18:39.132Z,4.07
2023-04-15T04:23:40.579Z,3.99
2023-04-15T04:28:41.999Z,3.76
2023-04-15T04:33:43.513Z,3.70
2023-04-15T04:38:44.974Z,3.83
2023-04-15T04:43:46.383Z,3.87
2023-04-15T04:48:47.928Z,3.95
2023-04-15T04:53:49.357Z,3.88
2023-04-15T04:58:51.283Z,3.82
2023-04-15T05:03:52.971Z,3.82
2023-04-15T05:08:54.467Z,4.00
2023-04-15T05:13:56.130Z,4.03
2023-04-15T05:18:57.544Z,4.06
2023-04-15T05:23:59.009Z,4.03
2023-04-15T05:29:00.791Z,4.06
2023-04-15T05:34:03.426Z,4.18
2023-04-15T05:39:04.885Z,4.32
2023-04-15T05:44:06.660Z,4.58
2023-04-15T05:49:08.080Z,4.77
2023-04-15T05:54:09.550Z,5.06
2023-04-15T05:59:11.086Z,5.39
2023-04-15T06:04:12.622Z,5.70
2023-04-15T06:09:14.221Z,6.15
2023-04-15T06:14:15.695Z,6.20
2023-04-15T06:19:18.359Z,6.35
2023-04-15T06:24:19.807Z,6.43
2023-04-15T06:29:21.269Z,6.52
2023-04-15T06:34:22.712Z,6.84
2023-04-15T06:39:24.186Z,6.97
2023-04-15T06:44:25.873Z,7.14
2023-04-15T06:49:27.263Z,7.23
2023-04-15T06:54:28.682Z,7.29
2023-04-15T06:59:30.172Z,7.47
2023-04-15T07:04:31.726Z,7.78
2023-04-15T07:09:34.192Z,8.15
2023-04-15T07:14:36.413Z,8.15
2023-04-15T07:19:38.091Z,8.16
2023-04-15T07:24:39.726Z,8.15
2023-04-15T07:29:41.397Z,8.14
2023-04-15T07:34:43.170Z,8.14
2023-04-15T07:39:44.553Z,8.22
2023-04-15T07:44:45.989Z,8.11
2023-04-15T07:49:47.424Z,8.15
2023-04-15T07:54:48.917Z,8.20
2023-04-15T07:59:50.650Z,8.15
2023-04-15T08:04:53.244Z,8.19
2023-04-15T08:09:54.778Z,8.21
2023-04-15T08:14:57.463Z,8.44
2023-04-15T08:19:59.005Z,8.42
2023-04-15T08:25:00.428Z,8.49
2023-04-15T08:30:04.675Z,8.85
2023-04-15T08:35:06.876Z,9.11
2023-04-15T08:40:09.926Z,9.19
2023-04-15T08:45:11.386Z,9.31
2023-04-15T08:50:14.466Z,9.43
2023-04-15T08:55:16.558Z,9.58
2023-04-15T09:00:18.886Z,9.79
2023-04-15T09:05:21.593Z,9.80
2023-04-15T09:10:23.194Z,9.96
2023-04-15T09:15:29.811Z,10.09
2023-04-15T09:20:38.629Z,10.22
2023-04-15T09:25:44.570Z,10.53
2023-04-15T09:30:49.166Z,10.66
2023-04-15T09:36:03.549Z,11.06
2023-04-15T09:41:19.641Z,10.98
2023-04-15T09:46:21.173Z,11.03
2023-04-15T09:51:34.971Z,11.24
2023-04-15T09:56:38.815Z,11.46
2023-04-15T10:01:42.851Z,11.47
2023-04-15T10:06:44.326Z,11.55
2023-04-15T10:11:46.115Z,11.62
2023-04-15T10:16:49.042Z,12.12
2023-04-15T10:21:51.879Z,11.94
2023-04-15T10:26:54.358Z,12.21
2023-04-15T10:31:56.915Z,12.77
2023-04-15T10:37:03.892Z,12.42
2023-04-15T10:42:20.099Z,12.21
2023-04-15T10:47:22.332Z,12.62
2023-04-15T10:52:28.725Z,13.05
2023-04-15T10:57:38.503Z,13.26
2023-04-15T11:02:53.327Z,12.76
2023-04-15T11:07:58.805Z,13.00
2023-04-15T11:13:03.207Z,13.00
2023-04-15T11:18:16.205Z,13.46
2023-04-15T11:23:19.636Z,13.37
2023-04-15T11:28:21.133Z,12.73
2023-04-15T11:33:30.006Z,12.91
2023-04-15T11:38:31.849Z,13.60
2023-04-15T11:43:35.653Z,13.33
2023-04-15T11:48:44.606Z,13.53
2023-04-15T11:53:46.181Z,13.68
2023-04-15T11:58:50.688Z,13.62
2023-04-15T12:03:52.477Z,13.84
2023-04-15T12:09:00.202Z,13.86
2023-04-15T12:14:08.992Z,13.64
2023-04-15T12:19:12.946Z,14.00
2023-04-15T12:24:14.853Z,13.72
2023-04-15T12:29:17.645Z,13.81
2023-04-15T12:34:45.160Z,13.66
2023-04-15T12:39:51.618Z,13.74
2023-04-15T12:44:53.493Z,13.86
2023-04-15T12:49:54.930Z,13.51
2023-04-15T12:54:56.640Z,13.29
2023-04-15T12:59:58.063Z,13.24
2023-04-15T13:04:59.446Z,13.77
2023-04-15T13:10:01.092Z,13.26
2023-04-15T13:15:09.501Z,13.82
2023-04-15T13:20:11.101Z,13.53
2023-04-15T13:25:12.545Z,13.18
2023-04-15T13:30:13.921Z,13.10
2023-04-15T13:35:15.472Z,13.07
2023-04-15T13:40:16.977Z,13.06
2023-04-15T13:45:21.688Z,13.22
2023-04-15T13:50:23.461Z,12.71
2023-04-15T13:55:26.420Z,12.39
2023-04-15T14:00:28.613Z,12.63
2023-04-15T14:05:30.344Z,12.53
2023-04-15T14:10:31.977Z,12.13
2023-04-15T14:15:33.415Z,11.92
2023-04-15T14:20:34.809Z,11.99
2023-04-15T14:25:36.223Z,11.75
2023-04-15T14:30:37.677Z,11.78
2023-04-15T14:35:39.372Z,11.58
2023-04-15T14:40:41.625Z,11.31
2023-04-15T14:45:44.655Z,10.99
2023-04-15T14:50:47.000Z,10.83
2023-04-15T14:55:48.427Z,11.08
2023-04-15T15:00:49.975Z,11.24
2023-04-15T15:05:51.853Z,10.95
2023-04-15T15:10:53.356Z,10.76
2023-04-15T15:15:54.904Z,11.13
2023-04-15T15:20:56.600Z,10.61
2023-04-15T15:25:58.792Z,10.42
2023-04-15T15:31:00.547Z,10.12
2023-04-15T15:36:04.523Z,10.18
2023-04-15T15:41:06.000Z,10.08
2023-04-15T15:46:07.522Z,10.15
2023-04-15T15:51:09.187Z,10.03
2023-04-15T15:56:10.830Z,9.84
2023-04-15T16:01:12.379Z,9.74
2023-04-15T16:06:14.098Z,9.71
2023-04-15T16:11:15.587Z,9.99
2023-04-15T16:16:17.129Z,9.86
2023-04-15T16:21:20.236Z,9.85
2023-04-15T16:26:21.867Z,9.47
2023-04-15T16:31:23.432Z,9.57
2023-04-15T16:36:24.896Z,9.59
2023-04-15T16:41:26.319Z,9.44
2023-04-15T16:46:29.540Z,9.36
2023-04-15T16:51:32.024Z,9.37
2023-04-15T16:56:33.669Z,9.08
2023-04-15T17:01:35.175Z,9.03
2023-04-15T17:06:36.595Z,8.94
2023-04-15T17:11:40.940Z,8.84
2023-04-15T17:16:43.173Z,8.69
2023-04-15T17:21:44.789Z,8.66
2023-04-15T17:26:47.070Z,8.58
2023-04-15T17:31:48.524Z,8.47
2023-04-15T17:36:51.438Z,8.48
2023-04-15T17:41:52.896Z,8.40
2023-04-15T17:46:54.468Z,8.42
2023-04-15T17:51:55.985Z,8.41
2023-04-15T17:56:57.984Z,8.24
2023-04-15T18:01:59.505Z,8.22
2023-04-15T18:07:01.366Z,8.15
2023-04-15T18:12:04.573Z,8.16
2023-04-15T18:17:06.081Z,8.20
2023-04-15T18:22:07.537Z,8.14
2023-04-15T18:27:09.075Z,8.04
2023-04-15T18:32:10.829Z,8.06
2023-04-15T18:37:12.253Z,8.02
2023-04-15T18:42:16.296Z,7.90
2023-04-15T18:47:18.321Z,7.94
2023-04-15T18:52:22.380Z,7.80
2023-04-15T18:57:28.688Z,7.85
2023-04-15T19:02:36.173Z,7.76
2023-04-15T19:07:42.056Z,7.75
2023-04-15T19:12:50.363Z,7.79
2023-04-15T19:17:52.089Z,7.73
2023-04-15T19:22:57.460Z,7.76
2023-04-15T19:27:59.996Z,7.73
2023-04-15T19:33:01.685Z,7.76
2023-04-15T19:38:03.343Z,7.72
2023-04-15T19:43:04.764Z,7.65
2023-04-15T19:48:07.632Z,7.72
2023-04-15T19:53:09.129Z,7.72
2023-04-15T19:58:10.609Z,7.67
2023-04-15T20:03:12.932Z,7.69
2023-04-15T20:08:14.549Z,7.68
2023-04-15T20:13:16.181Z,7.64
2023-04-15T20:18:17.632Z,7.65
2023-04-15T20:23:21.918Z,7.66
2023-04-15T20:28:25.722Z,7.61
2023-04-15T20:33:27.575Z,7.63
2023-04-15T20:38:29.098Z,7.61
2023-04-15T20:43:30.615Z,7.63
2023-04-15T20:48:32.016Z,7.64
2023-04-15T20:53:33.445Z,7.65
2023-04-15T20:58:34.851Z,7.58
2023-04-15T21:03:36.395Z,7.51
2023-04-15T21:08:37.794Z,7.54
2023-04-15T21:13:39.291Z,7.43
2023-04-15T21:18:40.908Z,7.33
2023-04-15T21:23:42.501Z,7.33
2023-04-15T21:28:43.958Z,7.43
2023-04-15T21:33:46.841Z,7.35
2023-04-15T21:38:48.251Z,7.37
2023-04-15T21:43:49.716Z,7.40
2023-04-15T21:48:52.509Z,7.41
2023-04-15T21:53:53.955Z,7.39
2023-04-15T21:58:57.030Z,7.41
2023-04-15T22:03:58.645Z,7.47
2023-04-15T22:09:00.366Z,7.43
2023-04-15T22:14:01.848Z,7.41
2023-04-15T22:19:03.616Z,7.45
2023-04-15T22:24:38.729Z,7.47
2023-04-15T22:29:27.160Z,7.50
2023-04-15T22:34:28.602Z,7.48
2023-04-15T22:39:29.982Z,7.53
2023-04-15T22:44:31.342Z,7.55
2023-04-15T22:49:34.997Z,7.54
2023-04-15T22:54:36.543Z,7.56
2023-04-15T22:59:38.002Z,7.57
2023-04-15T23:04:39.567Z,7.57
2023-04-15T23:09:41.123Z,7.61
2023-04-15T23:14:42.572Z,7.61
2023-04-15T23:19:44.138Z,7.60
2023-04-15T23:24:45.818Z,7.64
2023-04-15T23:29:47.469Z,7.63
2023-04-15T23:34:48.988Z,7.66
2023-04-15T23:39:50.360Z,7.67
2023-04-15T23:44:51.871Z,7.73
2023-04-15T23:49:53.337Z,7.70
2023-04-15T23:54:54.772Z,7.69
2023-04-15T23:59:56.441Z,7.69
